Terminal Aerodrome Forecast
Issued by NWS

Home | Current Version | Previous Version | Text Only | Print | Product List | Glossary On
Versions: 1 2 3 4 5 6 7 8 9 10 11 12 13 14 15 16 17 18 19 20 21 22 23 24 25 26 27
182
FTUS41 KBUF 220900 AAB
TAFJHW
TAF AMD
KJHW 220900Z 2209/2306 VRB03KT P6SM BKN250
     FM221100 VRB03KT 2SM BR BKN250
     FM221300 VRB03KT P6SM BKN250
     FM221600 05005KT P6SM SCT250
     FM222000 35006KT P6SM SKC
     FM230200 VRB03KT P6SM SKC
      AMD LTD TO CLD VIS AND WIND=

USA.gov is the U.S. government's official web portal to all federal, state and local government web resources and services.